createdAt,value
2022-08-17T00:02:27.275Z,98961.75
2022-08-17T00:05:35.677Z,98969.09
2022-08-17T00:08:44.389Z,98963.28
2022-08-17T00:12:41.996Z,98960.09
2022-08-17T00:15:13.414Z,98956.72
2022-08-17T00:19:06.015Z,98958.84
2022-08-17T00:22:32.889Z,98964.22
2022-08-17T00:25:15.511Z,98959.50
2022-08-17T00:28:18.829Z,98954.25
2022-08-17T00:31:24.682Z,98962.41
2022-08-17T00:34:27.939Z,98972.56
2022-08-17T00:37:31.102Z,98960.72
2022-08-17T00:40:44.673Z,98977.00
2022-08-17T00:43:55.622Z,98954.56
2022-08-17T00:46:58.427Z,98950.00
2022-08-17T00:50:01.451Z,98960.78
2022-08-17T00:53:05.590Z,98953.84
2022-08-17T00:56:14.631Z,98962.47
2022-08-17T00:59:20.276Z,98959.69
2022-08-17T01:02:23.802Z,98946.28
2022-08-17T01:05:30.966Z,98964.03
2022-08-17T01:08:35.762Z,98974.63
2022-08-17T01:11:40.638Z,98968.44
2022-08-17T01:14:44.028Z,98966.31
2022-08-17T01:17:47.807Z,98967.69
2022-08-17T01:20:55.026Z,98978.56
2022-08-17T01:23:57.807Z,98978.09
2022-08-17T01:27:01.946Z,98976.12
2022-08-17T01:30:57.013Z,98963.59
2022-08-17T01:33:34.187Z,98968.12
2022-08-17T01:36:38.501Z,98974.50
2022-08-17T01:39:47.645Z,98983.94
2022-08-17T01:43:01.503Z,98985.59
2022-08-17T01:46:05.623Z,98992.19
2022-08-17T01:49:10.866Z,98985.66
2022-08-17T01:52:14.451Z,98974.63
2022-08-17T01:55:24.587Z,98983.09
2022-08-17T01:58:32.074Z,98983.75
2022-08-17T02:01:35.630Z,98970.75
2022-08-17T02:04:38.570Z,98981.63
2022-08-17T02:07:59.675Z,98975.13
2022-08-17T02:11:11.300Z,98980.50
2022-08-17T02:14:14.860Z,98979.84
2022-08-17T02:17:17.892Z,98966.03
2022-08-17T02:20:41.402Z,98977.06
2022-08-17T02:23:48.485Z,98978.50
2022-08-17T02:26:51.181Z,98980.63
2022-08-17T02:29:54.092Z,98970.09
2022-08-17T02:32:56.941Z,98969.94
2022-08-17T02:36:00.032Z,98970.59
2022-08-17T02:39:04.926Z,98967.81
2022-08-17T02:42:07.902Z,98972.41
2022-08-17T02:45:16.794Z,98973.03
2022-08-17T02:48:30.884Z,98968.12
2022-08-17T02:51:35.499Z,98969.44
2022-08-17T02:54:40.687Z,98971.41
2022-08-17T02:57:45.379Z,98965.37
2022-08-17T03:00:48.774Z,98966.97
2022-08-17T03:03:51.494Z,98969.25
2022-08-17T03:06:54.399Z,98968.28
2022-08-17T03:09:57.023Z,98963.09
2022-08-17T03:13:00.308Z,98954.00
2022-08-17T03:16:03.160Z,98971.84
2022-08-17T03:19:06.300Z,98976.09
2022-08-17T03:22:36.540Z,98978.25
2022-08-17T03:25:35.329Z,98974.63
2022-08-17T03:28:39.217Z,98960.19
2022-08-17T03:31:42.085Z,98976.59
2022-08-17T03:34:44.658Z,98966.38
2022-08-17T03:37:48.050Z,98970.94
2022-08-17T03:41:05.377Z,98976.97
2022-08-17T03:44:08.312Z,98980.22
2022-08-17T03:47:29.534Z,98971.97
2022-08-17T03:50:51.478Z,98981.03
2022-08-17T03:54:15.855Z,98980.06
2022-08-17T03:57:19.327Z,98982.53
2022-08-17T04:00:22.890Z,98982.69
2022-08-17T04:03:25.809Z,98993.91
2022-08-17T04:06:28.769Z,98988.56
2022-08-17T04:09:31.849Z,98988.88
2022-08-17T04:12:46.644Z,98987.75
2022-08-17T04:15:50.450Z,98993.03
2022-08-17T04:18:53.371Z,98991.53
2022-08-17T04:21:57.790Z,99005.53
2022-08-17T04:25:16.313Z,99011.53
2022-08-17T04:28:19.909Z,99016.25
2022-08-17T04:31:22.964Z,99011.53
2022-08-17T04:34:26.118Z,99010.53
2022-08-17T04:37:28.767Z,99002.53
2022-08-17T04:40:50.543Z,99022.59
2022-08-17T04:43:56.147Z,99009.38
2022-08-17T04:46:59.412Z,99016.72
2022-08-17T04:50:02.600Z,99012.28
2022-08-17T04:53:05.618Z,99002.91
2022-08-17T04:56:11.747Z,99010.41
2022-08-17T04:59:21.292Z,99014.53
2022-08-17T05:02:23.904Z,99004.75
2022-08-17T05:05:30.109Z,99015.22
2022-08-17T05:08:33.829Z,99017.81
2022-08-17T05:11:37.439Z,99012.81
2022-08-17T05:14:40.021Z,99010.56
2022-08-17T05:17:43.772Z,99022.81
2022-08-17T05:20:46.751Z,99017.91
2022-08-17T05:23:54.889Z,99019.63
2022-08-17T05:27:06.044Z,99024.09
2022-08-17T05:30:10.163Z,99022.84
2022-08-17T05:33:16.599Z,99017.94
2022-08-17T05:36:38.025Z,99017.66
2022-08-17T05:39:42.687Z,99014.75
2022-08-17T05:42:45.903Z,99012.81
2022-08-17T05:46:14.802Z,99025.34
2022-08-17T05:49:24.736Z,99021.81
2022-08-17T05:52:30.310Z,99016.88
2022-08-17T05:56:29.345Z,99025.47
2022-08-17T05:59:48.559Z,99028.75
2022-08-17T06:02:57.579Z,99024.69
2022-08-17T06:06:31.310Z,99034.72
2022-08-17T06:10:00.300Z,99028.09
2022-08-17T06:13:23.293Z,99031.97
2022-08-17T06:16:34.412Z,99040.44
2022-08-17T06:19:48.145Z,99035.66
2022-08-17T06:22:55.797Z,99027.25
2022-08-17T06:26:37.295Z,99032.44
2022-08-17T06:29:59.733Z,99038.09
2022-08-17T06:33:07.613Z,99044.78
2022-08-17T06:36:57.356Z,99031.13
2022-08-17T06:40:25.911Z,99041.59
2022-08-17T06:44:43.402Z,99037.66
2022-08-17T06:47:52.959Z,99031.06
2022-08-17T06:51:03.178Z,99036.12
2022-08-17T06:54:14.735Z,99043.72
2022-08-17T06:57:19.713Z,99037.00
2022-08-17T07:00:29.611Z,99050.66
2022-08-17T07:03:46.237Z,99038.31
2022-08-17T07:06:59.012Z,99048.78
2022-08-17T07:10:02.109Z,99050.31
2022-08-17T07:13:55.199Z,99040.50
2022-08-17T07:17:02.080Z,99046.09
2022-08-17T07:20:16.082Z,99037.06
2022-08-17T07:23:39.548Z,99052.22
2022-08-17T07:26:42.495Z,99044.78
2022-08-17T07:30:20.419Z,99063.97
2022-08-17T07:33:27.779Z,99043.72
2022-08-17T07:36:33.877Z,99057.03
2022-08-17T07:39:37.325Z,99046.91
2022-08-17T07:43:21.931Z,99041.63
2022-08-17T07:46:52.833Z,99042.28
2022-08-17T07:49:56.560Z,99038.44
2022-08-17T07:53:16.369Z,99050.75
2022-08-17T07:56:37.995Z,99049.22
2022-08-17T07:59:43.803Z,99058.78
2022-08-17T08:03:00.338Z,99058.63
2022-08-17T08:06:22.344Z,99058.31
2022-08-17T08:09:42.912Z,99056.97
2022-08-17T08:12:48.187Z,99058.97
2022-08-17T08:16:14.325Z,99055.81
2022-08-17T08:19:21.029Z,99054.66
2022-08-17T08:22:37.914Z,99051.47
2022-08-17T08:26:09.765Z,99069.06
2022-08-17T08:29:42.805Z,99061.03
2022-08-17T08:32:51.694Z,99070.87
2022-08-17T08:35:57.533Z,99065.19
2022-08-17T08:39:06.488Z,99066.22
2022-08-17T08:42:40.577Z,99063.28
2022-08-17T08:46:13.626Z,99061.69
2022-08-17T08:50:02.860Z,99059.75
2022-08-17T08:53:43.609Z,99051.91
2022-08-17T08:57:21.523Z,99059.78
2022-08-17T09:00:20.203Z,99066.16
2022-08-17T09:03:32.388Z,99061.91
2022-08-17T09:07:04.616Z,99055.00
2022-08-17T09:10:10.735Z,99051.16
2022-08-17T09:13:37.124Z,99065.09
2022-08-17T09:17:06.226Z,99044.88
2022-08-17T09:20:27.428Z,99064.06
2022-08-17T09:23:59.592Z,99054.16
2022-08-17T09:27:09.155Z,99051.13
2022-08-17T09:30:21.062Z,99064.81
2022-08-17T09:33:27.927Z,99055.22
2022-08-17T09:36:45.495Z,99058.34
2022-08-17T09:40:06.405Z,99054.13
2022-08-17T09:43:56.860Z,99056.09
2022-08-17T09:47:02.545Z,99056.97
2022-08-17T09:51:03.984Z,99042.81
2022-08-17T09:53:51.131Z,99054.25
2022-08-17T09:57:31.607Z,99045.31
2022-08-17T10:00:40.396Z,99041.72
2022-08-17T10:03:59.561Z,99042.13
2022-08-17T10:07:22.733Z,99043.97
2022-08-17T10:10:42.902Z,99044.22
2022-08-17T10:14:24.055Z,99051.81
2022-08-17T10:17:50.603Z,99052.69
2022-08-17T10:21:22.602Z,99050.94
2022-08-17T10:25:21.682Z,99049.34
2022-08-17T10:28:30.278Z,99043.22
2022-08-17T10:31:47.922Z,99049.16
2022-08-17T10:35:13.067Z,99045.00
2022-08-17T10:38:49.939Z,99043.22
2022-08-17T10:41:57.963Z,99042.13
2022-08-17T10:45:26.577Z,99024.22
2022-08-17T10:48:36.494Z,99044.44
2022-08-17T10:51:42.007Z,99022.56
2022-08-17T10:55:07.954Z,99027.91
2022-08-17T10:58:22.098Z,99042.50
2022-08-17T11:01:35.013Z,99038.19
2022-08-17T11:05:06.332Z,99032.53
2022-08-17T11:08:20.733Z,99025.31
2022-08-17T11:11:59.855Z,99021.06
2022-08-17T11:15:32.927Z,99029.34
2022-08-17T11:18:54.637Z,99026.59
2022-08-17T11:21:58.306Z,99021.56
2022-08-17T11:25:31.358Z,99019.78
2022-08-17T11:28:52.496Z,99007.16
2022-08-17T11:32:22.648Z,99011.63
2022-08-17T11:35:44.205Z,99008.88
2022-08-17T11:38:58.064Z,99001.25
2022-08-17T11:42:28.715Z,99003.53
2022-08-17T11:46:16.354Z,98998.91
2022-08-17T11:50:03.733Z,99001.66
2022-08-17T11:53:07.211Z,98998.66
2022-08-17T11:56:29.983Z,98995.16
2022-08-17T11:59:32.942Z,98993.72
2022-08-17T12:02:47.399Z,98985.59
2022-08-17T12:06:01.795Z,98989.44
2022-08-17T12:09:32.895Z,98992.84
2022-08-17T12:12:36.001Z,98976.59
2022-08-17T12:15:48.625Z,98992.09
2022-08-17T12:18:58.631Z,98987.50
2022-08-17T12:22:17.234Z,98992.81
2022-08-17T12:25:33.095Z,98970.00
2022-08-17T12:28:39.128Z,98976.22
2022-08-17T12:31:44.639Z,98982.63
2022-08-17T12:34:50.160Z,98973.63
2022-08-17T12:37:53.275Z,98965.06
2022-08-17T12:40:57.861Z,98951.59
2022-08-17T12:44:26.731Z,98953.62
2022-08-17T12:47:30.559Z,98960.94
2022-08-17T12:50:41.745Z,98952.13
2022-08-17T12:53:54.104Z,98958.06
2022-08-17T12:57:05.509Z,98956.50
2022-08-17T13:00:17.843Z,98955.09
2022-08-17T13:03:24.592Z,98952.44
2022-08-17T13:06:34.022Z,98963.91
2022-08-17T13:09:40.493Z,98951.09
2022-08-17T13:12:43.549Z,98952.03
2022-08-17T13:16:25.675Z,98943.63
2022-08-17T13:19:40.752Z,98955.44
2022-08-17T13:22:53.287Z,98938.44
2022-08-17T13:26:04.949Z,98948.94
2022-08-17T13:29:33.901Z,98947.53
2022-08-17T13:32:43.962Z,98931.50
2022-08-17T13:35:50.470Z,98945.41
2022-08-17T13:39:06.662Z,98940.81
2022-08-17T13:42:51.922Z,98931.66
2022-08-17T13:46:09.186Z,98937.41
2022-08-17T13:49:14.086Z,98925.84
2022-08-17T13:52:38.091Z,98913.50
2022-08-17T13:55:49.481Z,98931.44
2022-08-17T13:58:56.177Z,98925.78
2022-08-17T14:01:59.857Z,98924.88
2022-08-17T14:05:06.396Z,98918.81
2022-08-17T14:08:13.038Z,98926.97
2022-08-17T14:11:17.375Z,98929.34
2022-08-17T14:14:23.304Z,98913.28
2022-08-17T14:17:28.831Z,98922.50
2022-08-17T14:20:32.364Z,98929.69
2022-08-17T14:23:37.117Z,98939.94
2022-08-17T14:26:41.026Z,98928.59
2022-08-17T14:29:44.783Z,98935.28
2022-08-17T14:32:52.111Z,98927.31
2022-08-17T14:35:56.837Z,98921.31
2022-08-17T14:38:59.486Z,98928.84
2022-08-17T14:42:02.522Z,98921.56
2022-08-17T14:45:07.542Z,98933.63
2022-08-17T14:48:33.097Z,98931.44
2022-08-17T14:51:36.516Z,98928.09
2022-08-17T14:54:46.641Z,98923.44
2022-08-17T14:57:49.330Z,98933.50
2022-08-17T15:00:57.678Z,98920.84
2022-08-17T15:04:01.066Z,98934.09
2022-08-17T15:07:04.794Z,98921.69
2022-08-17T15:10:08.985Z,98928.31
2022-08-17T15:13:21.916Z,98928.31
2022-08-17T15:16:24.629Z,98933.41
2022-08-17T15:19:27.773Z,98922.16
2022-08-17T15:22:30.422Z,98929.91
2022-08-17T15:25:33.728Z,98928.81
2022-08-17T15:28:36.404Z,98933.66
2022-08-17T15:31:39.531Z,98932.72
2022-08-17T15:34:42.166Z,98939.94
2022-08-17T15:37:45.599Z,98927.16
2022-08-17T15:40:51.294Z,98930.09
2022-08-17T15:43:55.054Z,98928.50
2022-08-17T15:46:57.750Z,98931.28
2022-08-17T15:50:02.955Z,98940.19
2022-08-17T15:53:05.811Z,98925.91
2022-08-17T15:56:08.994Z,98934.50
2022-08-17T15:59:11.661Z,98934.13
2022-08-17T16:03:14.238Z,98933.44
2022-08-17T16:05:40.771Z,98933.09
2022-08-17T16:08:43.992Z,98923.59
2022-08-17T16:11:53.795Z,98923.59
2022-08-17T16:14:58.459Z,98930.56
2022-08-17T16:18:01.798Z,98920.63
2022-08-17T16:21:26.746Z,98931.16
2022-08-17T16:24:30.725Z,98928.41
2022-08-17T16:27:33.434Z,98938.22
2022-08-17T16:30:37.339Z,98929.06
2022-08-17T16:33:40.181Z,98919.53
2022-08-17T16:36:51.752Z,98936.47
2022-08-17T16:40:00.481Z,98933.31
2022-08-17T16:43:07.042Z,98940.19
2022-08-17T16:46:10.755Z,98937.03
2022-08-17T16:49:35.537Z,98937.91
2022-08-17T16:52:40.832Z,98936.34
2022-08-17T16:55:48.639Z,98926.78
2022-08-17T16:58:52.935Z,98934.47
2022-08-17T17:02:05.051Z,98938.12
2022-08-17T17:05:43.491Z,98939.75
2022-08-17T17:08:54.286Z,98941.81
2022-08-17T17:12:00.632Z,98936.69
2022-08-17T17:15:03.799Z,98943.13
2022-08-17T17:18:12.675Z,98940.38
2022-08-17T17:21:20.171Z,98937.97
2022-08-17T17:24:40.690Z,98936.00
2022-08-17T17:28:08.750Z,98932.81
2022-08-17T17:31:23.803Z,98930.41
2022-08-17T17:34:30.198Z,98936.84
2022-08-17T17:37:35.354Z,98936.44
2022-08-17T17:40:41.814Z,98938.84
2022-08-17T17:43:44.546Z,98929.97
2022-08-17T17:46:56.937Z,98941.16
2022-08-17T17:50:01.723Z,98943.09
2022-08-17T17:53:35.272Z,98960.62
2022-08-17T17:57:38.283Z,98961.66
2022-08-17T18:00:48.089Z,98964.75
2022-08-17T18:04:26.219Z,98958.59
2022-08-17T18:07:42.484Z,98963.66
2022-08-17T18:11:24.225Z,98958.22
2022-08-17T18:15:00.875Z,98971.53
2022-08-17T18:18:09.703Z,98969.59
2022-08-17T18:21:19.350Z,98971.59
2022-08-17T18:24:32.786Z,98979.69
2022-08-17T18:27:40.813Z,98971.69
2022-08-17T18:31:02.467Z,98980.66
2022-08-17T18:34:52.104Z,98991.56
2022-08-17T18:37:55.546Z,98996.78
2022-08-17T18:41:19.310Z,99001.19
2022-08-17T18:44:29.069Z,99000.94
2022-08-17T18:47:32.083Z,99002.22
2022-08-17T18:50:41.207Z,99003.09
2022-08-17T18:53:43.886Z,99004.78
2022-08-17T18:56:52.688Z,99009.22
2022-08-17T18:59:55.986Z,99009.66
2022-08-17T19:03:05.845Z,99003.44
2022-08-17T19:06:34.236Z,99008.88
2022-08-17T19:09:44.065Z,99007.47
2022-08-17T19:13:12.568Z,99013.38
2022-08-17T19:16:40.395Z,98999.34
2022-08-17T19:20:32.479Z,99005.41
2022-08-17T19:23:53.793Z,99001.97
2022-08-17T19:27:06.321Z,98999.91
2022-08-17T19:30:16.420Z,99008.72
2022-08-17T19:33:19.539Z,99008.78
2022-08-17T19:36:48.605Z,99004.03
2022-08-17T19:40:08.367Z,99003.22
2022-08-17T19:43:30.606Z,98991.81
2022-08-17T19:46:42.960Z,98995.44
2022-08-17T19:50:10.501Z,98983.12
2022-08-17T19:53:47.491Z,98984.31
2022-08-17T19:57:02.277Z,98991.06
2022-08-17T20:00:13.653Z,98998.94
2022-08-17T20:03:46.070Z,98996.84
2022-08-17T20:06:49.581Z,99002.34
2022-08-17T20:10:05.682Z,99001.31
2022-08-17T20:13:33.489Z,98994.78
2022-08-17T20:16:36.796Z,99004.88
2022-08-17T20:19:58.318Z,98998.19
2022-08-17T20:23:23.310Z,98986.38
2022-08-17T20:26:43.062Z,98997.50
2022-08-17T20:30:00.987Z,98995.28
2022-08-17T20:33:06.087Z,98996.91
2022-08-17T20:36:21.026Z,98997.16
2022-08-17T20:39:50.249Z,98983.28
2022-08-17T20:42:53.763Z,98990.69
2022-08-17T20:46:26.859Z,98994.41
2022-08-17T20:49:50.710Z,98986.87
2022-08-17T20:52:59.041Z,98992.78
2022-08-17T20:56:02.079Z,99006.06
2022-08-17T20:59:05.183Z,99014.66
2022-08-17T21:02:18.490Z,99014.53
2022-08-17T21:05:34.792Z,99017.50
2022-08-17T21:08:54.803Z,99021.16
2022-08-17T21:12:04.289Z,99016.75
2022-08-17T21:15:24.346Z,99024.47
2022-08-17T21:18:55.803Z,99035.91
2022-08-17T21:22:13.755Z,99032.37
2022-08-17T21:25:57.461Z,99034.22
2022-08-17T21:29:17.883Z,99047.38
2022-08-17T21:32:38.125Z,99036.50
2022-08-17T21:36:17.313Z,99041.44
2022-08-17T21:39:24.234Z,99046.69
2022-08-17T21:42:38.975Z,99047.91
2022-08-17T21:45:42.969Z,99053.19
2022-08-17T21:48:49.360Z,99052.84
2022-08-17T21:51:57.172Z,99049.91
2022-08-17T21:55:02.506Z,99059.12
2022-08-17T21:58:19.370Z,99065.41
2022-08-17T22:01:29.837Z,99065.25
2022-08-17T22:04:39.906Z,99061.91
2022-08-17T22:07:46.496Z,99079.63
2022-08-17T22:10:51.388Z,99086.69
2022-08-17T22:14:00.654Z,99083.09
2022-08-17T22:17:16.106Z,99080.19
2022-08-17T22:20:21.044Z,99091.88
2022-08-17T22:23:51.257Z,99094.13
2022-08-17T22:27:02.848Z,99099.31
2022-08-17T22:30:18.415Z,99092.44
2022-08-17T22:33:33.324Z,99099.97
2022-08-17T22:36:38.776Z,99086.75
2022-08-17T22:39:41.731Z,99084.38
2022-08-17T22:42:49.407Z,99067.66
2022-08-17T22:45:54.713Z,99078.28
2022-08-17T22:48:59.619Z,99075.53
2022-08-17T22:52:29.176Z,99071.34
2022-08-17T22:55:54.292Z,99060.56
2022-08-17T22:59:18.357Z,99073.41
2022-08-17T23:02:23.711Z,99058.63
2022-08-17T23:05:26.413Z,99053.91
2022-08-17T23:08:30.326Z,99050.00
2022-08-17T23:11:49.307Z,99058.94
2022-08-17T23:14:58.473Z,99055.22
2022-08-17T23:18:04.910Z,99045.47
2022-08-17T23:21:07.811Z,99045.81
2022-08-17T23:24:14.754Z,99029.25
2022-08-17T23:27:20.026Z,99040.53
2022-08-17T23:30:25.428Z,99034.19
2022-08-17T23:33:38.601Z,99031.94
2022-08-17T23:36:42.065Z,99035.50
2022-08-17T23:39:45.786Z,99031.97
2022-08-17T23:42:50.282Z,99022.22
2022-08-17T23:45:55.253Z,99033.75
2022-08-17T23:48:57.861Z,99030.69
2022-08-17T23:52:02.591Z,99028.72
2022-08-17T23:55:06.179Z,99026.78
2022-08-17T23:58:09.086Z,99021.09
